Time;durP1;ratioP1;P1;durP2;ratioP2;P2;SDS_P1;SDS_P2;PMS_P1;PMS_P2;Temp;Humidity;BMP_temperature;BMP_pressure;BME280_temperature;BME280_humidity;BME280_pressure;Samples;Min_cycle;Max_cycle;Signal;HPM_P1;HPM_P2
2023/04/15 00:00:42;;;;;;;14.20;5.35;;;5.70;99.90;;;;;;5093046;27;20051;-55
2023/04/15 00:03:08;;;;;;;13.48;5.68;;;5.50;99.90;;;;;;5058447;28;20514;-55
2023/04/15 00:05:34;;;;;;;10.32;5.15;;;;;;;;;;5092382;27;20031;-55
2023/04/15 00:08:00;;;;;;;10.90;5.43;;;5.60;99.90;;;;;;5093672;27;20062;-54
2023/04/15 00:10:27;;;;;;;14.95;5.93;;;5.60;99.90;;;;;;5093202;28;20061;-55
2023/04/15 00:12:53;;;;;;;12.73;5.70;;;5.50;99.90;;;;;;5076443;28;20035;-55
2023/04/15 00:15:19;;;;;;;13.52;5.97;;;5.30;99.90;;;;;;5093550;28;20036;-55
2023/04/15 00:17:45;;;;;;;12.27;5.63;;;5.40;99.90;;;;;;5094050;28;20075;-55
2023/04/15 00:20:12;;;;;;;17.75;6.10;;;;;;;;;;5092337;28;20616;-54
2023/04/15 00:22:37;;;;;;;14.23;6.20;;;5.30;99.90;;;;;;5093448;28;20059;-54
2023/04/15 00:25:03;;;;;;;13.30;5.50;;;5.20;99.90;;;;;;5074600;28;20272;-54
2023/04/15 00:27:29;;;;;;;14.88;6.00;;;5.20;99.90;;;;;;5092656;28;20046;-55
2023/04/15 00:29:56;;;;;;;18.98;6.88;;;5.20;99.90;;;;;;5091925;28;20039;-55
2023/04/15 00:32:22;;;;;;;11.80;6.15;;;5.20;99.90;;;;;;5093207;28;20448;-55
2023/04/15 00:34:48;;;;;;;16.60;8.00;;;5.20;99.90;;;;;;5092957;28;20050;-55
2023/04/15 00:37:14;;;;;;;11.27;6.20;;;5.20;99.90;;;;;;5093134;28;20039;-53
2023/04/15 00:39:40;;;;;;;11.27;6.20;;;;;;;;;;5091017;28;20073;-54
2023/04/15 00:42:06;;;;;;;16.00;6.78;;;;;;;;;;5074498;28;20135;-54
2023/04/15 00:44:33;;;;;;;12.05;5.93;;;5.20;99.90;;;;;;5093327;28;20120;-54
2023/04/15 00:47:00;;;;;;;10.40;5.82;;;5.10;99.90;;;;;;5090777;28;20047;-53
2023/04/15 00:49:27;;;;;;;11.40;6.70;;;5.10;99.90;;;;;;5092421;28;20039;-54
2023/04/15 00:51:54;;;;;;;12.60;5.90;;;;;;;;;;5091451;28;20040;-54
2023/04/15 00:54:21;;;;;;;15.93;6.18;;;;;;;;;;5091936;28;20082;-51
2023/04/15 00:56:47;;;;;;;11.65;6.35;;;;;;;;;;5091380;28;20457;-54
2023/04/15 00:59:14;;;;;;;15.27;7.10;;;5.00;99.90;;;;;;5093210;27;20047;-55
2023/04/15 01:01:40;;;;;;;14.23;6.85;;;;;;;;;;5095297;27;20134;-54
2023/04/15 01:04:08;;;;;;;18.10;7.13;;;;;;;;;;5096073;27;20445;-54
2023/04/15 01:06:35;;;;;;;18.00;7.25;;;;;;;;;;5095245;27;20063;-54
2023/04/15 01:09:01;;;;;;;15.00;7.25;;;;;;;;;;5095384;27;20048;-54
2023/04/15 01:11:29;;;;;;;14.95;7.75;;;5.10;99.90;;;;;;5095103;27;20475;-52
2023/04/15 01:13:57;;;;;;;17.23;8.00;;;4.90;99.90;;;;;;5097002;27;20086;-54
2023/04/15 01:16:23;;;;;;;15.93;7.45;;;4.90;99.90;;;;;;5097637;27;20384;-50
2023/04/15 01:18:49;;;;;;;16.73;7.43;;;;;;;;;;5095108;27;20066;-55
2023/04/15 01:21:15;;;;;;;12.90;6.75;;;;;;;;;;5095872;27;20047;-52
2023/04/15 01:23:44;;;;;;;13.38;7.88;;;4.90;99.90;;;;;;5094732;28;20039;-53
2023/04/15 01:26:10;;;;;;;15.65;7.65;;;;;;;;;;5097382;27;20055;-53
2023/04/15 01:28:37;;;;;;;14.80;7.50;;;;;;;;;;5095670;27;20092;-54
2023/04/15 01:31:11;;;;;;;10.65;7.38;;;4.50;99.90;;;;;;5095705;27;20042;-54
2023/04/15 01:33:38;;;;;;;13.82;7.60;;;;;;;;;;5075943;27;20134;-54
2023/04/15 01:36:05;;;;;;;13.68;8.30;;;4.70;99.90;;;;;;5095372;27;20244;-54
2023/04/15 01:38:32;;;;;;;15.77;8.45;;;;;;;;;;5094693;27;20118;-55
2023/04/15 01:40:58;;;;;;;14.20;8.07;;;;;;;;;;5094883;27;20039;-54
2023/04/15 01:43:25;;;;;;;17.70;8.23;;;4.60;99.90;;;;;;5096688;27;20100;-52
2023/04/15 01:45:51;;;;;;;16.17;9.43;;;;;;;;;;5095090;27;20040;-54
2023/04/15 01:48:17;;;;;;;18.75;10.43;;;;;;;;;;5095196;27;20035;-55
2023/04/15 01:50:43;;;;;;;16.17;9.75;;;4.50;99.90;;;;;;5095481;27;20053;-55
2023/04/15 01:53:09;;;;;;;15.32;8.32;;;;;;;;;;5095480;27;20721;-53
2023/04/15 01:55:36;;;;;;;17.05;9.25;;;;;;;;;;5094412;27;20070;-55
2023/04/15 01:58:02;;;;;;;15.38;8.90;;;;;;;;;;5093342;27;20040;-55
2023/04/15 02:00:29;;;;;;;14.57;9.50;;;;;;;;;;5095123;27;20373;-54
2023/04/15 02:02:55;;;;;;;16.90;8.43;;;;;;;;;;5095094;27;20047;-55
2023/04/15 02:05:22;;;;;;;15.85;8.40;;;;;;;;;;5093851;27;20062;-55
2023/04/15 02:07:48;;;;;;;15.40;9.25;;;;;;;;;;5093857;27;20043;-50
2023/04/15 02:10:15;;;;;;;14.15;9.30;;;;;;;;;;5091852;27;20106;-53
2023/04/15 02:12:41;;;;;;;16.48;8.75;;;;;;;;;;5094525;27;20051;-54
2023/04/15 02:15:09;;;;;;;13.20;8.73;;;4.50;99.90;;;;;;5097102;27;20454;-52
2023/04/15 02:17:36;;;;;;;15.77;9.07;;;4.70;99.90;;;;;;5094509;27;20105;-54
2023/04/15 02:20:04;;;;;;;16.85;9.95;;;;;;;;;;5094663;27;20035;-53
2023/04/15 02:22:30;;;;;;;16.13;9.88;;;;;;;;;;5094193;27;20465;-53
2023/04/15 02:24:57;;;;;;;16.58;10.55;;;;;;;;;;5094372;27;20118;-55
2023/04/15 02:27:23;;;;;;;14.43;8.60;;;;;;;;;;5093878;27;20062;-55
2023/04/15 02:29:52;;;;;;;14.57;10.02;;;;;;;;;;5093345;27;20496;-52
2023/04/15 02:32:18;;;;;;;19.13;9.70;;;;;;;;;;5093153;28;20499;-54
2023/04/15 02:34:45;;;;;;;15.82;10.07;;;;;;;;;;5094056;27;21023;-55
2023/04/15 02:37:12;;;;;;;19.10;10.60;;;4.10;99.90;;;;;;5095901;27;20040;-54
2023/04/15 02:39:38;;;;;;;16.38;10.07;;;;;;;;;;5095434;27;20056;-52
2023/04/15 02:42:07;;;;;;;18.58;10.00;;;;;;;;;;5094556;27;20043;-52
2023/04/15 02:44:35;;;;;;;18.23;10.88;;;;;;;;;;5094561;27;20086;-52
2023/04/15 02:47:02;;;;;;;16.77;10.23;;;;;;;;;;5093421;28;20057;-52
2023/04/15 02:49:29;;;;;;;17.98;10.32;;;;;;;;;;5093407;27;21621;-54
2023/04/15 02:51:57;;;;;;;17.88;10.95;;;;;;;;;;5094980;27;20070;-53
2023/04/15 02:54:23;;;;;;;20.02;10.77;;;4.10;99.90;;;;;;5093349;28;20059;-52
2023/04/15 02:56:49;;;;;;;16.85;10.52;;;;;;;;;;5093129;27;20931;-53
2023/04/15 02:59:15;;;;;;;19.23;10.98;;;;;;;;;;5075774;28;20049;-52
2023/04/15 03:01:42;;;;;;;18.88;11.23;;;;;;;;;;5093848;27;20138;-55
2023/04/15 03:04:08;;;;;;;21.85;12.60;;;;;;;;;;5093721;27;20087;-51
2023/04/15 03:06:34;;;;;;;18.17;11.27;;;;;;;;;;5075396;28;20045;-52
2023/04/15 03:09:01;;;;;;;19.42;11.35;;;;;;;;;;5091663;28;20252;-53
2023/04/15 03:11:28;;;;;;;22.63;12.60;;;4.10;99.90;;;;;;5093598;27;20044;-54
2023/04/15 03:13:53;;;;;;;23.70;13.43;;;4.00;99.90;;;;;;5094661;27;20504;-51
2023/04/15 03:16:20;;;;;;;22.85;12.90;;;;;;;;;;5093353;27;20046;-53
2023/04/15 03:18:46;;;;;;;20.40;12.25;;;;;;;;;;5092141;27;20103;-53
2023/04/15 03:21:12;;;;;;;21.38;13.63;;;;;;;;;;5094403;27;20492;-52
2023/04/15 03:23:38;;;;;;;24.77;14.15;;;;;;;;;;5074026;28;20035;-51
2023/04/15 03:26:04;;;;;;;22.40;13.68;;;4.00;99.90;;;;;;5092093;27;20531;-51
2023/04/15 03:28:31;;;;;;;23.05;14.52;;;;;;;;;;5090769;28;20043;-54
2023/04/15 03:30:57;;;;;;;23.13;14.57;;;;;;;;;;5093269;28;20043;-53
2023/04/15 03:33:23;;;;;;;25.17;14.23;;;4.00;99.90;;;;;;5091987;28;20096;-50
2023/04/15 03:35:50;;;;;;;22.73;14.65;;;4.00;99.90;;;;;;5093447;27;20428;-53
2023/04/15 03:38:17;;;;;;;26.30;15.30;;;;;;;;;;5092255;28;20044;-53
2023/04/15 03:40:43;;;;;;;23.83;15.13;;;;;;;;;;5093465;27;20057;-53
2023/04/15 03:43:09;;;;;;;24.02;15.57;;;;;;;;;;5093862;27;20050;-53
2023/04/15 03:45:35;;;;;;;23.27;15.38;;;3.90;99.90;;;;;;5075797;28;20100;-49
2023/04/15 03:48:01;;;;;;;22.73;14.38;;;;;;;;;;5091895;28;20052;-55
2023/04/15 03:50:27;;;;;;;24.45;16.15;;;;;;;;;;5093663;27;20039;-53
2023/04/15 03:52:53;;;;;;;24.70;15.73;;;;;;;;;;5093360;27;20039;-53
2023/04/15 03:55:20;;;;;;;24.80;15.77;;;;;;;;;;5093642;28;20579;-53
2023/04/15 03:57:46;;;;;;;25.98;15.25;;;;;;;;;;5092567;28;20051;-53
2023/04/15 04:00:12;;;;;;;26.27;15.93;;;;;;;;;;5094398;27;20146;-48
2023/04/15 04:02:38;;;;;;;23.05;15.60;;;;;;;;;;5093502;27;20083;-51
2023/04/15 04:05:05;;;;;;;26.08;16.35;;;;;;;;;;5092646;28;20072;-53
2023/04/15 04:07:31;;;;;;;22.58;15.60;;;;;;;;;;5092841;28;20051;-47
2023/04/15 04:09:57;;;;;;;23.52;15.35;;;;;;;;;;5092454;28;20035;-50
2023/04/15 04:12:23;;;;;;;28.33;15.38;;;;;;;;;;5094021;28;20032;-51
2023/04/15 04:14:50;;;;;;;22.40;15.88;;;;;;;;;;5094095;28;20200;-52
2023/04/15 04:17:15;;;;;;;24.77;15.32;;;3.80;99.90;;;;;;5093424;28;20051;-48
2023/04/15 04:19:42;;;;;;;21.73;15.02;;;;;;;;;;5093993;28;20032;-51
2023/04/15 04:22:08;;;;;;;23.95;17.10;;;;;;;;;;5075652;28;20055;-47
2023/04/15 04:24:34;;;;;;;28.02;17.75;;;;;;;;;;5093418;28;20655;-50
2023/04/15 04:27:00;;;;;;;32.17;18.20;;;;;;;;;;5092171;28;20146;-48
2023/04/15 04:29:27;;;;;;;28.80;17.67;;;;;;;;;;5092505;28;20155;-52
2023/04/15 04:31:53;;;;;;;27.02;17.20;;;;;;;;;;5092496;28;20110;-50
2023/04/15 04:34:19;;;;;;;26.73;17.25;;;;;;;;;;5094565;28;20047;-51
2023/04/15 04:36:45;;;;;;;31.20;18.08;;;;;;;;;;5096545;27;20130;-51
2023/04/15 04:39:11;;;;;;;25.75;17.25;;;;;;;;;;5096104;28;20435;-53
2023/04/15 04:41:37;;;;;;;26.48;16.42;;;;;;;;;;5078745;28;20135;-53
2023/04/15 04:44:03;;;;;;;36.08;18.40;;;;;;;;;;5078060;28;20191;-52
2023/04/15 04:46:30;;;;;;;26.27;17.75;;;;;;;;;;5097688;27;20226;-53
2023/04/15 04:48:56;;;;;;;27.10;18.13;;;;;;;;;;5095468;27;20043;-54
2023/04/15 04:51:22;;;;;;;28.90;18.67;;;;;;;;;;5096700;27;23958;-53
2023/04/15 04:53:48;;;;;;;29.23;18.63;;;;;;;;;;5096946;27;20043;-52
2023/04/15 04:56:14;;;;;;;25.73;16.90;;;;;;;;;;5096399;27;20139;-52
2023/04/15 04:58:41;;;;;;;28.77;18.08;;;;;;;;;;5096385;27;20275;-54
2023/04/15 05:01:07;;;;;;;28.83;17.85;;;;;;;;;;5096420;27;20119;-50
2023/04/15 05:03:33;;;;;;;28.63;16.88;;;;;;;;;;5096635;27;20357;-52
2023/04/15 05:05:59;;;;;;;26.88;17.40;;;3.50;99.90;;;;;;5095136;27;20036;-53
2023/04/15 05:08:25;;;;;;;26.05;17.38;;;;;;;;;;5076976;27;20525;-50
2023/04/15 05:10:52;;;;;;;22.20;15.55;;;;;;;;;;5077990;28;20728;-50
2023/04/15 05:13:18;;;;;;;26.23;17.80;;;;;;;;;;5076803;28;20050;-50
2023/04/15 05:15:44;;;;;;;24.42;15.15;;;;;;;;;;5097639;27;20047;-53
2023/04/15 05:18:10;;;;;;;21.17;15.23;;;;;;;;;;5078268;28;20048;-50
2023/04/15 05:20:36;;;;;;;23.80;15.60;;;3.90;99.90;;;;;;5096428;28;20517;-52
2023/04/15 05:23:02;;;;;;;28.25;17.63;;;;;;;;;;5096025;27;20052;-53
2023/04/15 05:25:28;;;;;;;23.75;16.92;;;;;;;;;;5095089;27;20862;-53
2023/04/15 05:27:54;;;;;;;23.90;16.05;;;4.50;99.90;;;;;;5078569;28;20423;-52
2023/04/15 05:30:21;;;;;;;22.35;15.55;;;;;;;;;;5095494;27;20042;-53
2023/04/15 05:32:47;;;;;;;24.02;16.08;;;;;;;;;;5095292;27;20527;-53
2023/04/15 05:35:13;;;;;;;20.83;15.35;;;;;;;;;;5095452;27;20099;-52
2023/04/15 05:37:38;;;;;;;35.88;16.35;;;6.10;99.90;;;;;;5096200;27;20047;-51
2023/04/15 05:40:05;;;;;;;18.73;14.88;;;6.80;99.90;;;;;;5095507;27;20123;-52
2023/04/15 05:42:30;;;;;;;17.58;13.57;;;7.00;99.90;;;;;;5094670;27;20085;-55
2023/04/15 05:44:56;;;;;;;16.90;12.50;;;8.30;99.90;;;;;;5096795;27;20463;-55
2023/04/15 05:47:22;;;;;;;14.10;11.85;;;8.60;99.90;;;;;;5095832;27;20062;-54
2023/04/15 05:49:48;;;;;;;14.75;9.90;;;9.00;99.90;;;;;;5093845;27;20057;-55
2023/04/15 05:52:14;;;;;;;14.80;10.15;;;8.70;99.90;;;;;;5094863;27;20031;-53
2023/04/15 05:54:39;;;;;;;14.68;10.25;;;9.90;99.90;;;;;;5094436;27;20091;-53
2023/04/15 05:57:06;;;;;;;14.70;10.07;;;10.40;99.90;;;;;;5094665;27;20051;-55
2023/04/15 05:59:32;;;;;;;14.77;10.57;;;9.90;99.90;;;;;;5093621;28;21054;-53
2023/04/15 06:01:57;;;;;;;13.73;9.88;;;8.10;99.90;;;;;;5094864;28;20492;-55
2023/04/15 06:04:23;;;;;;;14.27;10.10;;;7.90;99.90;;;;;;5094002;27;20125;-53
2023/04/15 06:06:49;;;;;;;12.98;9.55;;;8.00;99.90;;;;;;5094319;27;20499;-54
2023/04/15 06:09:15;;;;;;;11.95;9.20;;;8.20;99.90;;;;;;5093807;27;20047;-52
2023/04/15 06:11:41;;;;;;;12.55;9.52;;;8.50;99.90;;;;;;5095144;27;20349;-54
2023/04/15 06:14:07;;;;;;;12.75;9.52;;;9.00;99.90;;;;;;5093118;27;20035;-55
2023/04/15 06:16:33;;;;;;;14.75;10.10;;;10.10;99.90;;;;;;5075048;28;20039;-54
2023/04/15 06:18:58;;;;;;;15.45;10.85;;;10.20;99.90;;;;;;5094234;28;20046;-55
2023/04/15 06:21:24;;;;;;;12.52;9.40;;;9.70;99.90;;;;;;5092997;27;20046;-55
2023/04/15 06:23:50;;;;;;;14.32;9.77;;;9.20;99.90;;;;;;5094131;27;20049;-52
2023/04/15 06:26:15;;;;;;;13.32;9.60;;;9.60;99.90;;;;;;5092578;28;20317;-54
2023/04/15 06:28:41;;;;;;;17.45;9.70;;;9.70;99.90;;;;;;5093025;27;20028;-53
2023/04/15 06:31:07;;;;;;;14.15;9.50;;;9.50;99.90;;;;;;5094101;27;20047;-53
2023/04/15 06:33:33;;;;;;;14.77;13.23;;;9.70;99.90;;;;;;5093123;27;20575;-52
2023/04/15 06:35:58;;;;;;;19.70;12.48;;;9.60;99.90;;;;;;5094136;27;20043;-53
2023/04/15 06:38:24;;;;;;;14.45;10.95;;;9.60;99.90;;;;;;5076124;28;20036;-53
2023/04/15 06:40:50;;;;;;;11.80;9.68;;;9.60;99.90;;;;;;5094530;27;20158;-53
2023/04/15 06:43:16;;;;;;;13.98;9.30;;;9.50;99.90;;;;;;5094222;27;20091;-51
2023/04/15 06:45:41;;;;;;;15.05;9.48;;;9.40;99.90;;;;;;5096537;27;20188;-52
2023/04/15 06:48:07;;;;;;;14.55;10.18;;;9.60;99.90;;;;;;5095979;27;20047;-54
2023/04/15 06:50:34;;;;;;;13.82;9.70;;;9.80;99.90;;;;;;5093980;28;20042;-54
2023/04/15 06:53:00;;;;;;;13.02;9.63;;;10.20;99.90;;;;;;5094444;27;20346;-53
2023/04/15 06:55:26;;;;;;;14.48;10.85;;;10.60;99.90;;;;;;5094696;28;20372;-52
2023/04/15 06:57:52;;;;;;;13.60;9.45;;;11.00;99.90;;;;;;5077263;28;20066;-54
2023/04/15 07:00:18;;;;;;;14.43;9.70;;;11.20;99.90;;;;;;5094386;27;20069;-51
2023/04/15 07:02:44;;;;;;;12.45;9.45;;;11.50;99.90;;;;;;5094060;27;20283;-57
2023/04/15 07:05:10;;;;;;;12.60;9.10;;;11.70;99.90;;;;;;5093105;28;20047;-54
2023/04/15 07:07:36;;;;;;;12.05;8.63;;;11.80;99.90;;;;;;5094291;27;20081;-54
2023/04/15 07:10:02;;;;;;;10.23;7.85;;;11.90;99.90;;;;;;5093806;28;20193;-54
2023/04/15 07:12:27;;;;;;;12.43;8.07;;;11.90;99.90;;;;;;5074417;28;20134;-55
2023/04/15 07:14:53;;;;;;;9.98;7.80;;;12.00;99.90;;;;;;5094530;27;20036;-58
2023/04/15 07:17:19;;;;;;;11.75;7.35;;;12.10;99.90;;;;;;5094880;27;20055;-55
2023/04/15 07:19:45;;;;;;;11.48;7.35;;;12.20;99.90;;;;;;5091940;28;20108;-54
2023/04/15 07:22:11;;;;;;;11.80;6.60;;;12.20;99.90;;;;;;5093635;27;20035;-54
2023/04/15 07:24:36;;;;;;;10.00;5.93;;;11.90;99.90;;;;;;5074216;28;20431;-53
2023/04/15 07:27:03;;;;;;;10.68;6.30;;;11.60;99.90;;;;;;5057554;28;20449;-53
2023/04/15 07:29:28;;;;;;;9.02;5.88;;;11.60;99.90;;;;;;5092662;27;20039;-54
2023/04/15 07:31:55;;;;;;;8.75;5.43;;;11.50;99.90;;;;;;5092645;27;20040;-55
2023/04/15 07:34:21;;;;;;;9.52;5.50;;;11.20;99.90;;;;;;5093255;27;20039;-54
2023/04/15 07:36:49;;;;;;;7.55;4.95;;;11.40;99.90;;;;;;5092636;27;20053;-52
2023/04/15 07:39:15;;;;;;;11.48;5.40;;;11.40;99.90;;;;;;5093223;28;20044;-54
2023/04/15 07:41:41;;;;;;;6.72;4.68;;;11.20;99.90;;;;;;5093147;28;20040;-55
2023/04/15 07:44:07;;;;;;;7.32;4.32;;;11.30;99.90;;;;;;5075583;28;20062;-54
2023/04/15 07:46:32;;;;;;;7.85;4.85;;;11.30;99.90;;;;;;5094576;28;20043;-55
2023/04/15 07:48:58;;;;;;;9.05;4.40;;;11.20;99.90;;;;;;5092499;27;20510;-52
2023/04/15 07:51:24;;;;;;;8.50;5.28;;;11.10;99.90;;;;;;5074470;28;20138;-53
2023/04/15 07:53:50;;;;;;;11.73;5.55;;;11.10;99.90;;;;;;5093116;27;20543;-53
2023/04/15 07:56:16;;;;;;;8.82;5.80;;;11.10;99.90;;;;;;5092880;27;20399;-55
2023/04/15 07:58:42;;;;;;;8.80;5.57;;;10.90;99.90;;;;;;5092148;27;20039;-53
2023/04/15 08:01:08;;;;;;;10.20;6.60;;;12.80;99.90;;;;;;5075883;28;20047;-53
2023/04/15 08:03:34;;;;;;;10.60;5.35;;;10.90;99.90;;;;;;5075136;28;20118;-55
2023/04/15 08:05:59;;;;;;;9.88;5.60;;;10.80;99.90;;;;;;5093160;27;20065;-54
2023/04/15 08:08:26;;;;;;;8.35;5.88;;;10.80;99.90;;;;;;5073921;28;20075;-55
2023/04/15 08:10:51;;;;;;;10.25;5.68;;;10.70;99.90;;;;;;5094100;27;20040;-52
2023/04/15 08:13:17;;;;;;;11.88;5.53;;;10.30;99.90;;;;;;5093166;28;20040;-54
2023/04/15 08:15:43;;;;;;;8.77;4.82;;;9.90;99.90;;;;;;5093524;28;20056;-53
2023/04/15 08:18:09;;;;;;;10.05;5.18;;;9.90;99.90;;;;;;5095137;28;20043;-54
2023/04/15 08:20:36;;;;;;;6.63;3.92;;;9.90;99.90;;;;;;5093882;28;20056;-54
2023/04/15 08:23:02;;;;;;;11.05;5.32;;;9.70;99.90;;;;;;5093087;28;20406;-54
2023/04/15 08:25:28;;;;;;;11.23;6.82;;;9.60;99.90;;;;;;5092931;28;20035;-51
2023/04/15 08:27:56;;;;;;;9.30;5.72;;;9.20;99.90;;;;;;5095031;28;20568;-54
2023/04/15 08:30:22;;;;;;;8.90;5.50;;;9.20;99.90;;;;;;5093826;28;20054;-55
2023/04/15 08:32:50;;;;;;;9.07;4.93;;;9.30;99.90;;;;;;5092671;28;20040;-55
2023/04/15 08:35:16;;;;;;;10.05;5.28;;;9.20;99.90;;;;;;5091795;28;20055;-54
2023/04/15 08:37:42;;;;;;;7.82;4.07;;;9.40;99.90;;;;;;5073607;28;20044;-52
2023/04/15 08:40:08;;;;;;;10.35;5.22;;;9.20;99.90;;;;;;5093001;28;20053;-53
2023/04/15 08:42:43;;;;;;;9.48;4.38;;;9.20;99.90;;;;;;5093399;28;20063;-53
2023/04/15 08:45:12;;;;;;;10.85;5.35;;;9.20;99.90;;;;;;5074525;28;20036;-53
2023/04/15 08:47:39;;;;;;;10.02;5.35;;;9.30;99.90;;;;;;5095857;28;20039;-53
2023/04/15 08:50:08;;;;;;;8.18;4.13;;;9.10;99.90;;;;;;5092337;28;20093;-50
2023/04/15 08:52:34;;;;;;;8.63;4.07;;;9.10;99.90;;;;;;5093149;28;20449;-53
2023/04/15 08:55:02;;;;;;;8.43;4.10;;;9.30;99.90;;;;;;5093413;28;20048;-54
2023/04/15 08:57:28;;;;;;;10.73;3.65;;;9.10;99.90;;;;;;5076092;28;20044;-54
2023/04/15 08:59:57;;;;;;;8.30;3.75;;;9.20;99.90;;;;;;5092484;28;20051;-53
2023/04/15 09:02:25;;;;;;;7.43;3.63;;;9.20;99.90;;;;;;5092757;28;20048;-54
2023/04/15 09:04:52;;;;;;;6.50;3.28;;;9.30;99.90;;;;;;5091987;28;20584;-52
2023/04/15 09:07:18;;;;;;;7.72;3.67;;;9.30;99.90;;;;;;5091783;28;20051;-51
2023/04/15 09:09:44;;;;;;;9.35;3.88;;;9.40;99.90;;;;;;5093264;28;20070;-51
2023/04/15 09:12:11;;;;;;;11.00;4.03;;;9.20;99.90;;;;;;5093222;28;20078;-52
2023/04/15 09:14:39;;;;;;;7.00;3.45;;;9.40;99.90;;;;;;5092349;28;20422;-49
2023/04/15 09:17:08;;;;;;;7.65;3.85;;;9.20;99.90;;;;;;5093992;28;20098;-54
2023/04/15 09:19:34;;;;;;;7.13;3.10;;;9.10;99.90;;;;;;5074425;28;20064;-53
2023/04/15 09:22:01;;;;;;;7.13;2.85;;;9.10;99.90;;;;;;5097642;27;20386;-53
2023/04/15 09:24:37;;;;;;;7.30;2.85;;;9.10;99.90;;;;;;5097831;27;20392;-51
2023/04/15 09:27:02;;;;;;;9.88;3.53;;;9.00;99.90;;;;;;5096882;27;20046;-54
2023/04/15 09:29:28;;;;;;;6.10;2.90;;;9.10;99.90;;;;;;5098010;27;20039;-52
2023/04/15 09:31:54;;;;;;;7.47;2.97;;;9.20;99.90;;;;;;5077339;28;20084;-54
2023/04/15 09:34:20;;;;;;;5.05;1.90;;;9.30;99.90;;;;;;5094839;27;20040;-52
2023/04/15 09:36:53;;;;;;;8.18;2.38;;;9.70;99.90;;;;;;5096324;27;20132;-54
2023/04/15 09:39:19;;;;;;;4.55;1.90;;;10.30;99.90;;;;;;5095806;27;20637;-52
2023/04/15 09:41:45;;;;;;;6.78;1.90;;;10.50;99.90;;;;;;5097835;27;20127;-50
2023/04/15 09:44:24;;;;;;;6.25;2.08;;;11.10;99.90;;;;;;5096014;27;20393;-52
2023/04/15 09:46:50;;;;;;;4.43;1.88;;;11.00;99.90;;;;;;5097654;27;20739;-53
2023/04/15 09:49:16;;;;;;;6.53;2.38;;;10.90;99.90;;;;;;5096820;27;20159;-53
2023/04/15 09:51:43;;;;;;;5.50;1.30;;;10.90;99.90;;;;;;5095278;27;20076;-52
2023/04/15 09:54:09;;;;;;;5.15;1.23;;;10.80;99.90;;;;;;5094943;27;20058;-54
2023/04/15 09:56:42;;;;;;;4.18;1.30;;;10.70;99.90;;;;;;5095647;27;20075;-55
2023/04/15 09:59:08;;;;;;;6.32;1.17;;;10.80;99.90;;;;;;5095197;27;20392;-54
2023/04/15 10:01:35;;;;;;;2.88;1.27;;;10.80;99.90;;;;;;5096569;27;20043;-52
2023/04/15 10:04:05;;;;;;;4.18;1.10;;;10.60;99.90;;;;;;5094961;27;20051;-52
2023/04/15 10:06:31;;;;;;;4.10;1.30;;;10.70;99.90;;;;;;5095386;27;20116;-55
2023/04/15 10:08:58;;;;;;;3.85;1.38;;;10.70;99.90;;;;;;5094157;27;20077;-53
2023/04/15 10:11:27;;;;;;;3.05;1.40;;;10.50;99.90;;;;;;5094721;28;20050;-55
2023/04/15 10:13:55;;;;;;;3.33;1.13;;;10.60;99.90;;;;;;5094739;27;20051;-56
2023/04/15 10:16:21;;;;;;;5.22;2.28;;;10.60;99.90;;;;;;5095806;27;20734;-53
2023/04/15 10:18:54;;;;;;;2.40;1.33;;;10.60;99.90;;;;;;5096687;27;20467;-51
2023/04/15 10:21:21;;;;;;;3.95;1.10;;;10.60;99.90;;;;;;5094839;27;20496;-54
2023/04/15 10:23:47;;;;;;;4.38;1.33;;;10.40;99.90;;;;;;5095659;27;20108;-50
2023/04/15 10:26:14;;;;;;;3.85;1.35;;;10.70;99.90;;;;;;5094790;27;20507;-54
2023/04/15 10:28:44;;;;;;;5.00;1.77;;;10.40;99.90;;;;;;5076739;28;20036;-53
2023/04/15 10:31:17;;;;;;;5.10;1.42;;;10.40;99.90;;;;;;5093696;27;20168;-50
2023/04/15 10:33:44;;;;;;;3.95;1.42;;;10.20;99.90;;;;;;5076536;27;20086;-52
2023/04/15 10:36:11;;;;;;;3.60;1.13;;;10.30;99.90;;;;;;5095612;27;20055;-54
2023/04/15 10:38:40;;;;;;;4.70;1.40;;;10.20;99.90;;;;;;5095473;27;20407;-51
2023/04/15 10:41:13;;;;;;;3.67;1.30;;;10.20;99.90;;;;;;5095417;28;20690;-52
2023/04/15 10:43:44;;;;;;;6.22;1.80;;;10.30;99.90;;;;;;5095498;27;20094;-55
2023/04/15 10:46:10;;;;;;;3.00;1.50;;;10.10;99.90;;;;;;5094674;27;20047;-52
2023/04/15 10:48:36;;;;;;;4.43;1.65;;;10.00;99.90;;;;;;5078960;28;20039;-52
2023/04/15 10:51:03;;;;;;;2.58;1.35;;;10.20;99.90;;;;;;5095680;27;20028;-53
2023/04/15 10:53:30;;;;;;;6.85;1.40;;;10.10;99.90;;;;;;5095259;27;20051;-52
2023/04/15 10:55:57;;;;;;;6.95;1.58;;;10.00;99.90;;;;;;5076961;28;20393;-53
2023/04/15 10:58:42;;;;;;;6.88;1.58;;;10.00;99.90;;;;;;5095605;27;20040;-51
2023/04/15 11:01:08;;;;;;;3.92;1.33;;;10.00;99.90;;;;;;5095708;27;20072;-51
2023/04/15 11:03:39;;;;;;;4.85;1.80;;;10.00;99.90;;;;;;5095312;27;20058;-54
2023/04/15 11:06:05;;;;;;;5.50;1.90;;;10.00;99.90;;;;;;5095351;27;20051;-53
2023/04/15 11:09:01;;;;;;;3.83;1.60;;;9.90;99.90;;;;;;5094423;27;20416;-49
2023/04/15 11:12:07;;;;;;;7.75;2.13;;;9.90;99.90;;;;;;5093996;28;20048;-51
2023/04/15 11:14:34;;;;;;;6.97;1.70;;;9.80;99.90;;;;;;5076890;28;20038;-51
2023/04/15 11:17:00;;;;;;;4.40;2.05;;;9.80;99.90;;;;;;5095427;27;20039;-54
2023/04/15 11:19:34;;;;;;;10.32;2.70;;;8.00;99.90;;;;;;5094607;27;20031;-58
2023/04/15 11:22:09;;;;;;;7.80;1.95;;;9.80;99.90;;;;;;5093676;27;20047;-54
2023/04/15 11:24:45;;;;;;;7.57;1.92;;;9.70;99.90;;;;;;5094251;27;20043;-55
2023/04/15 11:27:20;;;;;;;7.07;1.98;;;9.80;99.90;;;;;;5094123;27;20184;-54
2023/04/15 11:29:46;;;;;;;12.02;1.98;;;9.70;99.90;;;;;;5093428;28;20043;-53
2023/04/15 11:32:11;;;;;;;8.55;2.30;;;11.60;99.90;;;;;;5094340;27;20054;-54
2023/04/15 11:34:37;;;;;;;7.80;2.35;;;9.70;99.90;;;;;;5093452;27;20530;-54
2023/04/15 11:37:06;;;;;;;7.22;2.00;;;9.60;99.90;;;;;;5092096;27;20381;-52
2023/04/15 11:39:32;;;;;;;6.55;1.75;;;9.60;99.90;;;;;;5093463;27;20149;-54
2023/04/15 11:41:58;;;;;;;5.45;1.92;;;9.70;99.90;;;;;;5092910;27;20215;-54
2023/04/15 11:44:24;;;;;;;5.28;1.60;;;9.70;99.90;;;;;;5093370;27;20043;-54
2023/04/15 11:46:50;;;;;;;4.95;1.38;;;9.90;99.90;;;;;;5093652;27;20135;-54
2023/04/15 11:49:32;;;;;;;10.73;2.00;;;9.90;99.90;;;;;;5092292;27;20046;-52
2023/04/15 11:51:59;;;;;;;6.95;2.70;;;10.00;99.90;;;;;;5092297;28;20044;-53
2023/04/15 11:54:25;;;;;;;6.43;1.50;;;9.90;99.90;;;;;;5091678;27;20055;-54
2023/04/15 11:56:52;;;;;;;5.15;1.55;;;9.70;99.90;;;;;;5092719;27;20043;-52
2023/04/15 11:59:18;;;;;;;6.65;1.80;;;9.80;99.90;;;;;;5092466;27;20510;-54
2023/04/15 12:01:45;;;;;;;4.43;1.13;;;10.00;99.90;;;;;;5094543;27;20146;-52
2023/04/15 12:04:13;;;;;;;9.85;2.17;;;10.10;99.90;;;;;;5092343;28;20448;-53
2023/04/15 12:06:40;;;;;;;13.43;1.77;;;10.00;99.90;;;;;;5092432;27;20096;-53
2023/04/15 12:09:05;;;;;;;8.13;1.92;;;9.80;99.90;;;;;;5092112;28;20052;-53
2023/04/15 12:11:32;;;;;;;8.43;1.55;;;9.90;99.90;;;;;;5093430;28;20657;-55
2023/04/15 12:14:11;;;;;;;6.63;1.63;;;10.00;99.90;;;;;;5093652;27;20511;-53
2023/04/15 12:16:45;;;;;;;9.98;2.35;;;9.90;99.90;;;;;;5093814;28;20054;-54
2023/04/15 12:19:22;;;;;;;8.52;1.63;;;9.80;99.90;;;;;;5092610;27;20545;-54
2023/04/15 12:21:48;;;;;;;7.60;1.52;;;9.80;99.90;;;;;;5092447;28;20044;-54
2023/04/15 12:24:14;;;;;;;10.93;1.60;;;9.60;99.90;;;;;;5092114;28;23446;-54
2023/04/15 12:26:46;;;;;;;11.77;1.75;;;9.50;99.90;;;;;;5074422;28;20047;-54
2023/04/15 12:29:13;;;;;;;8.15;1.90;;;9.60;99.90;;;;;;5093506;28;20063;-53
2023/04/15 12:32:07;;;;;;;10.80;1.58;;;9.50;99.90;;;;;;5074346;28;20474;-55
2023/04/15 12:34:41;;;;;;;7.80;1.55;;;9.80;99.90;;;;;;5088891;28;20043;-53
2023/04/15 12:37:09;;;;;;;10.45;1.77;;;9.80;99.90;;;;;;5092256;28;20043;-54
2023/04/15 12:39:37;;;;;;;5.38;1.08;;;9.90;99.90;;;;;;5092496;28;20066;-55
2023/04/15 12:42:04;;;;;;;8.95;1.63;;;9.70;99.90;;;;;;5091619;28;20044;-53
2023/04/15 12:44:30;;;;;;;7.65;1.58;;;9.70;99.90;;;;;;5071826;28;20043;-55
2023/04/15 12:46:56;;;;;;;8.52;1.73;;;9.60;99.90;;;;;;5090908;28;21031;-53
2023/04/15 12:49:23;;;;;;;10.35;1.85;;;10.00;99.90;;;;;;5074096;28;20138;-53
2023/04/15 12:51:50;;;;;;;11.95;2.85;;;9.80;99.90;;;;;;5089643;28;20409;-53
2023/04/15 12:54:16;;;;;;;8.95;1.42;;;9.90;99.90;;;;;;5089776;28;20055;-54
2023/04/15 12:56:47;;;;;;;13.45;2.58;;;9.80;99.90;;;;;;5093613;27;20039;-51
2023/04/15 12:59:13;;;;;;;11.23;1.40;;;9.70;99.90;;;;;;5076878;27;20306;-53
2023/04/15 13:01:39;;;;;;;11.73;2.13;;;9.80;99.90;;;;;;5095721;27;20135;-54
2023/04/15 13:04:05;;;;;;;7.25;1.80;;;9.60;99.90;;;;;;5094482;27;20042;-53
2023/04/15 13:06:34;;;;;;;9.38;1.67;;;9.80;99.90;;;;;;5096488;27;20150;-54
2023/04/15 13:09:00;;;;;;;8.55;1.40;;;9.90;99.90;;;;;;5096524;27;20035;-53
2023/04/15 13:11:29;;;;;;;11.07;1.65;;;10.00;99.90;;;;;;5098843;27;20723;-52